createdAt,value
2018-02-14T00:01:52.931Z,29.10
2018-02-14T00:04:19.287Z,27.47
2018-02-14T00:06:45.739Z,26.87
2018-02-14T00:09:12.140Z,27.43
2018-02-14T00:11:38.492Z,26.70
2018-02-14T00:14:04.889Z,27.00
2018-02-14T00:16:31.269Z,28.90
2018-02-14T00:18:57.622Z,27.90
2018-02-14T00:21:24.022Z,27.30
2018-02-14T00:23:50.373Z,29.23
2018-02-14T00:26:16.809Z,28.43
2018-02-14T00:28:43.225Z,29.57
2018-02-14T00:31:09.577Z,29.43
2018-02-14T00:33:35.954Z,28.50
2018-02-14T00:36:02.369Z,27.47
2018-02-14T00:38:28.721Z,29.93
2018-02-14T00:40:55.076Z,27.73
2018-02-14T00:43:21.497Z,29.37
2018-02-14T00:45:47.873Z,29.73
2018-02-14T00:48:14.229Z,29.20
2018-02-14T00:50:40.609Z,30.83
2018-02-14T00:53:06.961Z,30.47
2018-02-14T00:55:33.324Z,29.93
2018-02-14T00:57:59.725Z,29.53
2018-02-14T01:00:26.081Z,29.33
2018-02-14T01:02:52.489Z,30.37
2018-02-14T01:05:19.152Z,31.07
2018-02-14T01:07:45.583Z,29.97
2018-02-14T01:10:11.981Z,31.57
2018-02-14T01:12:38.429Z,29.93
2018-02-14T01:15:04.896Z,30.43
2018-02-14T01:17:31.297Z,30.13
2018-02-14T01:20:03.769Z,31.37
2018-02-14T01:22:30.224Z,30.27
2018-02-14T01:24:56.557Z,30.80
2018-02-14T01:27:22.966Z,32.80
2018-02-14T01:29:49.308Z,33.10
2018-02-14T01:32:15.732Z,31.13
2018-02-14T01:34:42.126Z,30.60
2018-02-14T01:37:08.517Z,31.23
2018-02-14T01:39:34.972Z,30.43
2018-02-14T01:42:01.364Z,31.50
2018-02-14T01:44:27.749Z,30.43
2018-02-14T01:46:54.186Z,31.07
2018-02-14T01:49:20.582Z,31.30
2018-02-14T01:51:46.989Z,31.23
2018-02-14T01:54:13.385Z,33.87
2018-02-14T01:56:39.792Z,32.23
2018-02-14T01:59:06.336Z,31.70
2018-02-14T02:01:32.826Z,31.40
2018-02-14T02:03:59.429Z,32.40
2018-02-14T02:06:25.920Z,33.07
2018-02-14T02:08:52.312Z,31.73
2018-02-14T02:11:18.704Z,32.17
2018-02-14T02:13:45.076Z,31.10
2018-02-14T02:16:11.512Z,32.20
2018-02-14T02:18:37.961Z,31.43
2018-02-14T02:21:04.396Z,34.00
2018-02-14T02:23:30.840Z,34.43
2018-02-14T02:25:57.260Z,35.03
2018-02-14T02:28:23.728Z,35.70
2018-02-14T02:30:50.129Z,37.10
2018-02-14T02:33:18.256Z,34.67
2018-02-14T02:35:44.608Z,33.27
2018-02-14T02:38:11.004Z,34.67
2018-02-14T02:40:41.349Z,36.37
2018-02-14T02:43:07.800Z,32.77
2018-02-14T02:45:34.216Z,32.80
2018-02-14T02:48:00.625Z,31.73
2018-02-14T02:50:27.226Z,31.63
2018-02-14T02:52:53.588Z,32.27
2018-02-14T02:55:20.001Z,30.37
2018-02-14T02:57:46.345Z,32.53
2018-02-14T03:00:12.812Z,31.43
2018-02-14T03:02:39.273Z,31.40
2018-02-14T03:05:05.720Z,31.67
2018-02-14T03:07:32.161Z,32.53
2018-02-14T03:09:58.554Z,32.17
2018-02-14T03:12:24.974Z,31.87
2018-02-14T03:14:51.409Z,32.70
2018-02-14T03:17:17.902Z,32.47
2018-02-14T03:19:44.321Z,33.23
2018-02-14T03:22:10.689Z,30.23
2018-02-14T03:24:37.169Z,31.77
2018-02-14T03:27:03.605Z,31.90
2018-02-14T03:29:30.061Z,31.97
2018-02-14T03:31:56.510Z,32.97
2018-02-14T03:34:22.912Z,31.83
2018-02-14T03:36:49.454Z,32.20
2018-02-14T03:39:15.839Z,32.20
2018-02-14T03:41:42.281Z,31.53
2018-02-14T03:44:08.737Z,32.90
2018-02-14T03:46:35.203Z,32.97
2018-02-14T03:49:01.738Z,32.40
2018-02-14T03:51:28.337Z,31.97
2018-02-14T03:53:54.802Z,34.77
2018-02-14T03:56:21.224Z,32.87
2018-02-14T03:58:47.695Z,32.03
2018-02-14T04:01:14.200Z,32.30
2018-02-14T04:03:40.618Z,29.33
2018-02-14T04:06:07.148Z,28.87
2018-02-14T04:08:33.629Z,24.30
2018-02-14T04:11:00.046Z,25.67
2018-02-14T04:13:26.473Z,27.10
2018-02-14T04:15:52.907Z,28.07
2018-02-14T04:18:19.284Z,28.80
2018-02-14T04:20:45.768Z,27.33
2018-02-14T04:23:12.226Z,27.37
2018-02-14T04:25:38.614Z,27.47
2018-02-14T04:28:07.181Z,28.33
2018-02-14T04:30:33.743Z,31.33
2018-02-14T04:33:00.226Z,31.50
2018-02-14T04:35:26.904Z,32.00
2018-02-14T04:37:53.266Z,35.03
2018-02-14T04:40:19.736Z,32.87
2018-02-14T04:42:46.145Z,34.73
2018-02-14T04:45:12.641Z,37.80
2018-02-14T04:47:40.892Z,34.53
2018-02-14T04:50:07.472Z,39.80
2018-02-14T04:52:33.887Z,38.77
2018-02-14T04:55:00.364Z,39.53
2018-02-14T04:57:26.815Z,39.50
2018-02-14T04:59:53.183Z,41.60
2018-02-14T05:02:19.601Z,39.47
2018-02-14T05:04:46.076Z,36.33
2018-02-14T05:07:12.740Z,35.67
2018-02-14T05:09:39.202Z,33.33
2018-02-14T05:12:05.585Z,30.53
2018-02-14T05:14:31.982Z,30.07
2018-02-14T05:16:58.568Z,29.93
2018-02-14T05:19:24.960Z,32.00
2018-02-14T05:21:51.493Z,29.70
2018-02-14T05:24:18.005Z,32.17
2018-02-14T05:26:44.416Z,32.83
2018-02-14T05:29:10.817Z,32.10
2018-02-14T05:31:37.248Z,30.83
2018-02-14T05:34:03.729Z,32.47
2018-02-14T05:36:30.173Z,31.80
2018-02-14T05:38:56.666Z,33.20
2018-02-14T05:41:23.046Z,32.20
2018-02-14T05:43:49.528Z,34.57
2018-02-14T05:46:16.008Z,32.53
2018-02-14T05:48:42.423Z,32.40
2018-02-14T05:51:08.881Z,30.77
2018-02-14T05:53:35.463Z,36.10
2018-02-14T05:56:01.947Z,38.47
2018-02-14T05:58:28.368Z,33.23
2018-02-14T06:00:54.839Z,35.73
2018-02-14T06:03:21.325Z,34.10
2018-02-14T06:05:47.693Z,36.03
2018-02-14T06:08:14.153Z,36.03
2018-02-14T06:10:40.552Z,35.73
2018-02-14T06:13:07.098Z,38.57
2018-02-14T06:15:33.673Z,40.20
2018-02-14T06:18:00.059Z,38.30
2018-02-14T06:20:26.460Z,44.13
2018-02-14T06:22:52.940Z,47.20
2018-02-14T06:25:19.530Z,47.73
2018-02-14T06:27:45.989Z,50.57
2018-02-14T06:30:12.433Z,51.77
2018-02-14T06:32:39.213Z,56.03
2018-02-14T06:35:06.308Z,66.83
2018-02-14T06:37:33.482Z,69.77
2018-02-14T06:39:59.939Z,67.83
2018-02-14T06:42:26.829Z,68.53
2018-02-14T06:44:54.542Z,74.13
2018-02-14T06:47:21.500Z,71.77
2018-02-14T06:49:48.162Z,69.83
2018-02-14T06:52:14.881Z,72.23
2018-02-14T06:54:41.389Z,77.97
2018-02-14T06:57:07.855Z,83.23
2018-02-14T06:59:35.038Z,90.43
2018-02-14T07:02:01.802Z,89.63
2018-02-14T07:04:28.358Z,76.53
2018-02-14T07:06:54.776Z,88.20
2018-02-14T07:09:21.249Z,83.03
2018-02-14T07:11:47.689Z,83.87
2018-02-14T07:14:14.238Z,77.50
2018-02-14T07:16:40.710Z,61.43
2018-02-14T07:19:07.279Z,57.27
2018-02-14T07:21:33.747Z,53.40
2018-02-14T07:24:00.194Z,60.70
2018-02-14T07:26:26.676Z,59.17
2018-02-14T07:28:53.093Z,56.63
2018-02-14T07:31:19.517Z,54.30
2018-02-14T07:33:46.027Z,52.90
2018-02-14T07:36:12.521Z,51.60
2018-02-14T07:38:39.025Z,51.83
2018-02-14T07:41:05.620Z,52.67
2018-02-14T07:43:32.073Z,56.90
2018-02-14T07:45:58.548Z,71.23
2018-02-14T07:48:25.024Z,67.23
2018-02-14T07:50:51.446Z,68.83
2018-02-14T07:53:17.966Z,79.27
2018-02-14T07:55:44.392Z,79.53
2018-02-14T07:58:10.801Z,83.10
2018-02-14T08:00:37.260Z,99.50
2018-02-14T08:03:03.748Z,94.37
2018-02-14T08:05:30.125Z,83.90
2018-02-14T08:07:56.635Z,67.73
2018-02-14T08:10:23.060Z,63.77
2018-02-14T08:12:49.457Z,65.70
2018-02-14T08:15:15.934Z,60.63
2018-02-14T08:17:42.396Z,62.67
2018-02-14T08:20:08.874Z,65.80
2018-02-14T08:22:35.387Z,60.43
2018-02-14T08:25:01.951Z,50.00
2018-02-14T08:27:28.537Z,55.10
2018-02-14T08:29:55.103Z,60.87
2018-02-14T08:32:21.588Z,63.07
2018-02-14T08:34:48.047Z,57.43
2018-02-14T08:37:14.637Z,79.80
2018-02-14T08:39:41.081Z,100.47
2018-02-14T08:42:07.565Z,120.60
2018-02-14T08:44:34.128Z,123.63
2018-02-14T08:47:00.574Z,115.83
2018-02-14T08:49:27.175Z,106.90
2018-02-14T08:51:53.660Z,113.30
2018-02-14T08:54:20.090Z,101.67
2018-02-14T08:56:46.485Z,60.67
2018-02-14T08:59:12.909Z,67.93
2018-02-14T09:01:39.447Z,73.97
2018-02-14T09:04:05.853Z,70.03
2018-02-14T09:06:32.245Z,63.83
2018-02-14T09:08:58.794Z,63.53
2018-02-14T09:11:25.156Z,56.10
2018-02-14T09:13:51.625Z,51.30
2018-02-14T09:16:18.054Z,43.37
2018-02-14T09:18:44.509Z,44.33
2018-02-14T09:21:10.935Z,45.30
2018-02-14T09:23:37.503Z,50.30
2018-02-14T09:26:03.940Z,46.40
2018-02-14T09:28:30.416Z,67.40
2018-02-14T09:30:56.869Z,58.13
2018-02-14T09:33:23.295Z,51.53
2018-02-14T09:35:49.684Z,46.23
2018-02-14T09:38:16.124Z,42.97
2018-02-14T09:40:42.479Z,39.30
2018-02-14T09:43:08.848Z,36.27
2018-02-14T09:45:35.332Z,37.07
2018-02-14T09:48:01.705Z,31.83
2018-02-14T09:50:28.143Z,33.53
2018-02-14T09:52:54.573Z,30.57
2018-02-14T09:55:21.080Z,31.53
2018-02-14T09:57:47.596Z,34.03
2018-02-14T10:00:13.999Z,33.27
2018-02-14T10:02:40.430Z,33.70
2018-02-14T10:05:06.954Z,34.80
2018-02-14T10:07:33.395Z,34.60
2018-02-14T10:09:59.868Z,37.73
2018-02-14T10:12:26.524Z,42.17
2018-02-14T10:14:52.955Z,33.90
2018-02-14T10:17:19.326Z,33.00
2018-02-14T10:19:45.876Z,33.77
2018-02-14T10:22:12.606Z,35.07
2018-02-14T10:24:39.044Z,34.13
2018-02-14T10:27:05.453Z,33.50
2018-02-14T10:29:32.145Z,33.57
2018-02-14T10:31:59.999Z,37.00
2018-02-14T10:34:27.402Z,35.97
2018-02-14T10:36:54.756Z,34.97
2018-02-14T10:39:21.305Z,32.60
2018-02-14T10:41:47.774Z,35.07
2018-02-14T10:44:14.183Z,32.80
2018-02-14T10:46:40.683Z,32.33
2018-02-14T10:49:07.101Z,31.23
2018-02-14T10:51:33.570Z,31.03
2018-02-14T10:53:59.981Z,30.43
2018-02-14T10:56:26.472Z,29.40
2018-02-14T10:58:53.044Z,24.03
2018-02-14T11:01:25.325Z,27.63
2018-02-14T11:03:51.714Z,23.93
2018-02-14T11:06:18.193Z,20.80
2018-02-14T11:08:44.707Z,22.87
2018-02-14T11:11:11.161Z,20.87
2018-02-14T11:13:37.568Z,18.40
2018-02-14T11:16:04.005Z,17.57
2018-02-14T11:18:30.544Z,14.83
2018-02-14T11:20:56.964Z,15.93
2018-02-14T11:23:23.345Z,13.87
2018-02-14T11:25:49.740Z,15.20
2018-02-14T11:28:16.171Z,17.57
2018-02-14T11:30:42.580Z,17.73
2018-02-14T11:33:09.040Z,16.67
2018-02-14T11:35:35.531Z,17.33
2018-02-14T11:38:01.908Z,20.43
2018-02-14T11:40:28.481Z,17.63
2018-02-14T11:42:54.977Z,18.03
2018-02-14T11:45:21.434Z,18.33
2018-02-14T11:47:47.885Z,20.33
2018-02-14T11:50:14.320Z,17.40
2018-02-14T11:52:40.716Z,18.67
2018-02-14T11:55:07.117Z,19.63
2018-02-14T11:57:33.517Z,21.10
2018-02-14T11:59:59.949Z,19.50
2018-02-14T12:02:26.362Z,18.87
2018-02-14T12:04:52.837Z,18.63
2018-02-14T12:07:19.258Z,17.20
2018-02-14T12:09:45.683Z,15.67
2018-02-14T12:12:19.369Z,14.50
2018-02-14T12:14:45.749Z,14.50
2018-02-14T12:17:12.262Z,14.20
2018-02-14T12:19:38.654Z,13.73
2018-02-14T12:22:05.139Z,12.37
2018-02-14T12:24:31.485Z,12.50
2018-02-14T12:26:57.925Z,11.77
2018-02-14T12:29:24.348Z,12.17
2018-02-14T12:31:50.892Z,12.83
2018-02-14T12:34:17.409Z,10.07
2018-02-14T12:36:43.853Z,10.83
2018-02-14T12:39:10.409Z,10.67
2018-02-14T12:41:36.793Z,10.80
2018-02-14T12:44:03.305Z,11.73
2018-02-14T12:46:29.777Z,11.00
2018-02-14T12:48:56.185Z,11.57
2018-02-14T12:51:22.649Z,12.67
2018-02-14T12:53:49.055Z,11.00
2018-02-14T12:56:15.451Z,10.10
2018-02-14T12:58:41.843Z,11.40
2018-02-14T13:01:08.192Z,11.20
2018-02-14T13:03:34.704Z,11.47
2018-02-14T13:06:01.052Z,10.10
2018-02-14T13:08:27.688Z,9.70
2018-02-14T13:10:54.113Z,8.60
2018-02-14T13:13:20.528Z,10.50
2018-02-14T13:15:46.984Z,8.23
2018-02-14T13:18:14.317Z,9.30
2018-02-14T13:20:40.685Z,8.67
2018-02-14T13:23:07.099Z,9.07
2018-02-14T13:25:33.561Z,9.50
2018-02-14T13:27:59.949Z,8.17
2018-02-14T13:30:26.393Z,7.33
2018-02-14T13:32:52.848Z,7.27
2018-02-14T13:35:19.223Z,5.90
2018-02-14T13:37:45.698Z,6.77
2018-02-14T13:40:12.294Z,7.80
2018-02-14T13:42:38.641Z,7.23
2018-02-14T13:45:05.006Z,8.80
2018-02-14T13:47:31.462Z,9.60
2018-02-14T13:49:57.827Z,8.23
2018-02-14T13:52:24.423Z,7.90
2018-02-14T13:54:50.896Z,8.53
2018-02-14T13:57:17.254Z,7.97
2018-02-14T13:59:43.719Z,6.60
2018-02-14T14:02:10.125Z,6.73
2018-02-14T14:04:36.591Z,6.60
2018-02-14T14:07:03.005Z,7.27
2018-02-14T14:09:29.443Z,7.07
2018-02-14T14:11:55.928Z,6.40
2018-02-14T14:14:22.386Z,6.27
2018-02-14T14:16:48.794Z,6.87
2018-02-14T14:19:15.234Z,6.10
2018-02-14T14:21:41.612Z,6.30
2018-02-14T14:24:08.028Z,7.30
2018-02-14T14:26:34.508Z,7.20
2018-02-14T14:29:00.893Z,6.57
2018-02-14T14:31:27.398Z,7.07
2018-02-14T14:33:53.932Z,7.30
2018-02-14T14:36:20.424Z,6.13
2018-02-14T14:38:46.853Z,7.20
2018-02-14T14:41:13.257Z,6.97
2018-02-14T14:43:39.809Z,7.40
2018-02-14T14:46:06.224Z,6.00
2018-02-14T14:48:32.613Z,6.90
2018-02-14T14:50:59.053Z,7.40
2018-02-14T14:53:25.504Z,8.10
2018-02-14T14:55:51.912Z,7.00
2018-02-14T14:58:18.428Z,7.83
2018-02-14T15:00:44.837Z,7.77
2018-02-14T15:03:11.406Z,7.97
2018-02-14T15:05:37.854Z,8.23
2018-02-14T15:08:04.281Z,8.37
2018-02-14T15:10:30.713Z,9.63
2018-02-14T15:12:57.152Z,9.73
2018-02-14T15:15:23.533Z,8.27
2018-02-14T15:17:49.908Z,9.70
2018-02-14T15:20:16.301Z,9.53
2018-02-14T15:22:42.736Z,10.67
2018-02-14T15:25:09.253Z,9.43
2018-02-14T15:27:35.637Z,9.10
2018-02-14T15:30:02.128Z,9.50
2018-02-14T15:32:28.559Z,9.47
2018-02-14T15:34:54.955Z,9.37
2018-02-14T15:37:21.388Z,10.47
2018-02-14T15:39:47.797Z,9.73
2018-02-14T15:42:14.269Z,8.73
2018-02-14T15:44:40.702Z,9.07
2018-02-14T15:47:07.226Z,10.10
2018-02-14T15:49:33.676Z,8.87
2018-02-14T15:52:00.084Z,9.87
2018-02-14T15:54:26.489Z,8.77
2018-02-14T15:56:52.930Z,9.67
2018-02-14T15:59:19.358Z,8.87
2018-02-14T16:01:45.788Z,10.13
2018-02-14T16:04:12.241Z,9.73
2018-02-14T16:06:38.680Z,9.40
2018-02-14T16:09:05.317Z,10.70
2018-02-14T16:11:31.725Z,10.30
2018-02-14T16:13:58.225Z,11.70
2018-02-14T16:16:24.620Z,12.23
2018-02-14T16:18:51.032Z,12.17
2018-02-14T16:21:17.473Z,10.83
2018-02-14T16:23:43.849Z,10.20
2018-02-14T16:26:10.447Z,10.50
2018-02-14T16:28:37.013Z,9.10
2018-02-14T16:31:03.584Z,10.93
2018-02-14T16:33:30.073Z,11.87
2018-02-14T16:35:56.552Z,11.87
2018-02-14T16:38:23.160Z,12.43
2018-02-14T16:40:49.548Z,12.10
2018-02-14T16:43:15.940Z,11.30
2018-02-14T16:45:42.432Z,12.17
2018-02-14T16:48:08.868Z,13.07
2018-02-14T16:50:35.382Z,13.15
2018-02-14T16:53:01.796Z,12.53
2018-02-14T16:55:28.234Z,11.63
2018-02-14T16:57:56.997Z,13.87
2018-02-14T17:00:23.665Z,13.60
2018-02-14T17:02:50.154Z,11.40
2018-02-14T17:05:16.619Z,11.80
2018-02-14T17:07:43.140Z,12.10
2018-02-14T17:10:09.573Z,10.00
2018-02-14T17:12:36.050Z,9.57
2018-02-14T17:15:02.606Z,10.03
2018-02-14T17:17:28.967Z,10.37
2018-02-14T17:19:55.440Z,9.97
2018-02-14T17:22:21.853Z,10.70
2018-02-14T17:24:48.307Z,9.93
2018-02-14T17:27:14.749Z,9.87
2018-02-14T17:29:41.166Z,10.63
2018-02-14T17:32:07.584Z,11.43
2018-02-14T17:34:34.061Z,10.87
2018-02-14T17:37:00.444Z,11.50
2018-02-14T17:39:26.828Z,11.83
2018-02-14T17:41:53.268Z,12.13
2018-02-14T17:44:19.774Z,9.80
2018-02-14T17:46:46.169Z,11.67
2018-02-14T17:49:12.609Z,12.30
2018-02-14T17:51:39.042Z,11.77
2018-02-14T17:54:05.473Z,13.63
2018-02-14T17:56:31.953Z,13.30
2018-02-14T17:58:58.401Z,13.73
2018-02-14T18:01:25.279Z,14.07
2018-02-14T18:03:52.860Z,13.67
2018-02-14T18:06:23.974Z,14.37
2018-02-14T18:08:54.133Z,14.00
2018-02-14T18:11:24.632Z,13.70
2018-02-14T18:13:58.466Z,16.77
2018-02-14T18:16:25.333Z,13.33
2018-02-14T18:18:51.716Z,12.33
2018-02-14T18:21:18.277Z,14.80
2018-02-14T18:23:44.687Z,13.67
2018-02-14T18:26:11.090Z,13.90
2018-02-14T18:28:37.622Z,13.47
2018-02-14T18:31:04.429Z,12.93
2018-02-14T18:33:30.842Z,13.33
2018-02-14T18:35:57.288Z,12.33
2018-02-14T18:38:23.666Z,14.10
2018-02-14T18:40:50.157Z,14.37
2018-02-14T18:43:16.589Z,13.10
2018-02-14T18:45:43.135Z,11.77
2018-02-14T18:48:09.549Z,11.63
2018-02-14T18:50:36.166Z,13.00
2018-02-14T18:53:02.677Z,11.97
2018-02-14T18:55:29.201Z,12.20
2018-02-14T18:57:55.671Z,13.40
2018-02-14T19:00:22.124Z,12.60
2018-02-14T19:02:48.569Z,11.43
2018-02-14T19:05:15.050Z,12.57
2018-02-14T19:07:41.457Z,12.83
2018-02-14T19:10:15.934Z,13.20
2018-02-14T19:12:42.349Z,12.90
2018-02-14T19:15:08.769Z,13.23
2018-02-14T19:17:35.152Z,13.03
2018-02-14T19:20:01.546Z,12.80
2018-02-14T19:22:27.917Z,13.10
2018-02-14T19:24:54.334Z,13.57
2018-02-14T19:27:20.743Z,13.97
2018-02-14T19:29:47.156Z,13.37
2018-02-14T19:32:13.549Z,14.70
2018-02-14T19:34:39.985Z,13.37
2018-02-14T19:37:06.397Z,13.27
2018-02-14T19:39:32.785Z,13.23
2018-02-14T19:41:59.228Z,14.63
2018-02-14T19:44:25.715Z,17.07
2018-02-14T19:46:52.341Z,17.80
2018-02-14T19:49:18.784Z,16.30
2018-02-14T19:51:45.271Z,17.20
2018-02-14T19:54:11.682Z,18.57
2018-02-14T19:56:38.045Z,17.47
2018-02-14T19:59:04.493Z,15.17
2018-02-14T20:01:31.049Z,15.23
2018-02-14T20:03:57.509Z,14.50
2018-02-14T20:06:23.968Z,13.37
2018-02-14T20:08:50.347Z,13.10
2018-02-14T20:11:16.788Z,13.13
2018-02-14T20:13:43.181Z,13.80
2018-02-14T20:16:09.673Z,14.20
2018-02-14T20:18:36.136Z,13.20
2018-02-14T20:21:02.546Z,13.70
2018-02-14T20:23:28.901Z,14.10
2018-02-14T20:25:55.385Z,12.93
2018-02-14T20:28:21.788Z,12.50
2018-02-14T20:30:48.164Z,12.43
2018-02-14T20:33:14.604Z,13.33
2018-02-14T20:35:41.183Z,14.00
2018-02-14T20:38:07.540Z,14.30
2018-02-14T20:40:33.928Z,15.87
2018-02-14T20:43:00.301Z,12.67
2018-02-14T20:45:26.753Z,13.53
2018-02-14T20:47:53.144Z,14.27
2018-02-14T20:50:19.591Z,13.30
2018-02-14T20:52:46.083Z,13.07
2018-02-14T20:55:12.518Z,12.23
2018-02-14T20:57:38.867Z,12.37
2018-02-14T21:00:05.293Z,11.20
2018-02-14T21:02:31.764Z,11.80
2018-02-14T21:04:58.161Z,12.43
2018-02-14T21:07:24.763Z,12.30
2018-02-14T21:09:52.954Z,13.37
2018-02-14T21:12:19.461Z,12.70
2018-02-14T21:14:46.225Z,12.80
2018-02-14T21:17:12.646Z,12.30
2018-02-14T21:19:39.737Z,13.70
2018-02-14T21:22:06.233Z,13.10
2018-02-14T21:24:33.784Z,13.13
2018-02-14T21:27:00.206Z,11.77
2018-02-14T21:29:26.621Z,11.30
2018-02-14T21:31:53.084Z,11.37
2018-02-14T21:34:19.510Z,10.93
2018-02-14T21:36:45.984Z,11.37
2018-02-14T21:39:12.476Z,12.00
2018-02-14T21:41:38.878Z,12.97
2018-02-14T21:44:05.468Z,12.83
2018-02-14T21:46:31.880Z,13.10
2018-02-14T21:48:58.291Z,11.60
2018-02-14T21:51:24.685Z,12.20
2018-02-14T21:53:51.072Z,11.73
2018-02-14T21:56:17.506Z,12.10
2018-02-14T21:58:43.934Z,11.23
2018-02-14T22:01:10.445Z,12.13
2018-02-14T22:03:36.923Z,10.90
2018-02-14T22:06:03.320Z,11.13
2018-02-14T22:08:29.704Z,10.27
2018-02-14T22:10:56.057Z,9.60
2018-02-14T22:13:22.459Z,10.57
2018-02-14T22:15:49.045Z,10.13
2018-02-14T22:18:15.429Z,9.17
2018-02-14T22:20:41.785Z,10.40
2018-02-14T22:23:08.223Z,9.10
2018-02-14T22:25:34.757Z,9.70
2018-02-14T22:28:01.150Z,10.90
2018-02-14T22:30:27.802Z,10.13
2018-02-14T22:32:54.257Z,9.83
2018-02-14T22:35:20.653Z,9.73
2018-02-14T22:37:47.192Z,9.47
2018-02-14T22:40:13.617Z,9.23
2018-02-14T22:42:40.113Z,9.83
2018-02-14T22:45:06.497Z,10.07
2018-02-14T22:47:33.755Z,8.87
2018-02-14T22:50:00.292Z,10.37
2018-02-14T22:52:26.680Z,10.17
2018-02-14T22:54:53.160Z,9.67
2018-02-14T22:57:19.704Z,9.57
2018-02-14T22:59:46.136Z,9.67
2018-02-14T23:02:12.603Z,9.50
2018-02-14T23:04:39.154Z,9.40
2018-02-14T23:07:05.533Z,9.93
2018-02-14T23:09:31.894Z,9.90
2018-02-14T23:11:58.234Z,9.43
2018-02-14T23:14:24.648Z,9.20
2018-02-14T23:16:51.035Z,8.43
2018-02-14T23:19:17.416Z,10.00
2018-02-14T23:21:43.820Z,8.33
2018-02-14T23:24:10.225Z,10.00
2018-02-14T23:26:36.572Z,9.40
2018-02-14T23:29:02.928Z,9.27
2018-02-14T23:31:29.373Z,10.33
2018-02-14T23:33:55.761Z,10.00
2018-02-14T23:36:22.159Z,10.40
2018-02-14T23:38:48.839Z,10.47
2018-02-14T23:41:15.186Z,9.97
2018-02-14T23:43:41.596Z,10.47
2018-02-14T23:46:07.974Z,9.93
2018-02-14T23:48:34.426Z,10.40
2018-02-14T23:51:00.818Z,9.17
2018-02-14T23:53:27.196Z,9.37
2018-02-14T23:55:53.572Z,10.27
2018-02-14T23:58:20.024Z,9.90
